Details From OTBD - DOHA INTL
To OBBI - BAHRAIN INTL
Flight Number -
Tags generated
Created
Modified
Stats Distance 79 nm / 146 km
Max Altitude 100 ft / 30 m
Waypoints 3
Social Downloads 9
Likes 0
Share

Download

Looking for another format? Having issues loading an existing format? Contact us
Advertisement - Login to hide

Notes

Basic altitude profile: - Ascent Rate: 2500ft/min - Ascent Speed: 250kts - Cruise Altitude: 35000ft - Cruise Speed: 420kts - Descent Rate: 1500ft/min - Descent Speed: 250kts Options: - Use NATs: yes - Use PACOTS: yes - Use low airways: yes - Use high airways: yes

Route

OTBD BAH OBBI

ID Type Via Altitude (ft/m) Position (lat/lon) Dist (leg/tot) Name
O OTBD APT - 0 / 0 25.26106 / 51.56500 - / 0 nm DOHA INTL
BAH VOR - 100 / 30 26.26419 / 50.64885 78 / 78 nm BAHRAIN VOR-DME
O OBBI APT - 0 / 0 26.26784 / 50.63710 0 / 78 nm BAHRAIN INTL

Altitude Profile

Advertisement - Login to hide

OTBD

Details ICAO OTBD (DIA)
Name DOHA INTL
Region Qatar
Timezone Asia/Qatar (UTC+3.0)
Stats Elevation 37 ft / 11 m (AMSL)
Location 25.261100° 51.565100°
Runways 1
Magnetic Variation 2.686° E

METAR

OTBD 272230Z AUTO 31008KT CAVOK 31/03 Q1004 NOSIG

Decode

TAF

TAF OTBD 271710Z 2718/2824 32010KT 8000 NSC TEMPO 2806/2813 02014KT

Decode

Departure Runways

ID Width Length Bearing (true/mag) Surface Threshold Overrun Markings Lighting
15 151 ft / 46 m 15,014 ft / 4,576 m 158.21° / 155.52° ASPHALT 2,461 ft / 750 m 0 ft / 0 m PREC-APP CENTERLINE EDGE THRESHOLD ALSF-I
33 151 ft / 46 m 15,014 ft / 4,576 m 338.21° / 335.53° ASPHALT 0 ft / 0 m 459 ft / 140 m PREC-APP CENTERLINE EDGE THRESHOLD ALSF-II

OBBI

Details ICAO OBBI (BAH)
Name Bahrain Intl
Region Bahrain
Timezone Asia/Bahrain (UTC+3.0)
Stats Elevation 8 ft / 2 m (AMSL)
Location 26.267900° 50.636900°
Runways 2
Magnetic Variation 2.972° E

METAR

OBBI 272230Z 30007KT CAVOK 30/12 Q1004 NOSIG

Decode

TAF

TAF OBBI 271700Z 2718/2900 31010KT 8000 NSC= TAF OKBK 271700Z 2718/2824 33012KT 7000 NSC TEMPO 2718/2803 4000 DU BECMG 2804/2807 35015KT 8000

Decode

Destination Runways

ID Width Length Bearing (true/mag) Surface Threshold Overrun Markings Lighting
12L 197 ft / 60 m 12,994 ft / 3,961 m 122.77° / 119.79° ASPHALT 1,001 ft / 305 m 207 ft / 63 m PREC-APP CENTERLINE EDGE THRESHOLD ALSF-I TDZ REIL-OMNI
12R 148 ft / 45 m 8,300 ft / 2,530 m 122.73° / 119.76° ASPHALT 1,007 ft / 307 m 0 ft / 0 m APP EDGE THRESHOLD REIL-OMNI
30L 148 ft / 45 m 8,300 ft / 2,530 m 302.74° / 299.77° ASPHALT 397 ft / 121 m 0 ft / 0 m PREC-APP EDGE THRESHOLD REIL-OMNI
30R 197 ft / 60 m 12,994 ft / 3,961 m 302.78° / 299.81° ASPHALT 997 ft / 304 m 203 ft / 62 m PREC-APP CENTERLINE EDGE THRESHOLD ALSF-I TDZ REIL-OMNI

Approach Navaids

Runway Type Ident Frequency Range Bearing (true/mag) Slope Elevation
12L DME IBIB 111.50 MHz 18 nm / 33 km - - 42 ft / 13 m (AMSL)
12L LOC-ILS IBIB 111.50 MHz 18 nm / 33 km 122.78° / 119.81 ° - 8 ft / 2 m (AMSL)
12L GS IBIB 111.50 MHz 10 nm / 19 km 122.78° / 119.81 ° 3.00° 8 ft / 2 m (AMSL)
30R LOC-ILS IBIA 110.30 MHz 18 nm / 33 km 302.78° / 299.81 ° - 8 ft / 2 m (AMSL)
30R MM MM - - 302.75° / 299.77 ° - 6 ft / 2 m (AMSL)
30R GS IBIA 110.30 MHz 10 nm / 19 km 302.78° / 299.81 ° 3.00° 8 ft / 2 m (AMSL)
30R DME IBIA 110.30 MHz 18 nm / 33 km - - 42 ft / 13 m (AMSL)

Popular Alternatives